createdAt,value
2018-05-06T00:00:11.431Z,12.20
2018-05-06T00:02:39.504Z,12.20
2018-05-06T00:05:07.805Z,12.10
2018-05-06T00:07:39.238Z,11.90
2018-05-06T00:10:06.993Z,11.90
2018-05-06T00:12:35.277Z,11.80
2018-05-06T00:15:03.419Z,11.70
2018-05-06T00:17:31.021Z,11.70
2018-05-06T00:19:59.803Z,11.60
2018-05-06T00:22:29.293Z,11.50
2018-05-06T00:24:57.177Z,11.50
2018-05-06T00:27:24.866Z,11.50
2018-05-06T00:29:57.556Z,11.50
2018-05-06T00:32:25.262Z,11.40
2018-05-06T00:34:54.480Z,11.40
2018-05-06T00:37:23.167Z,11.30
2018-05-06T00:39:51.123Z,11.20
2018-05-06T00:42:18.946Z,11.20
2018-05-06T00:44:46.521Z,11.10
2018-05-06T00:47:21.872Z,11.20
2018-05-06T00:49:49.491Z,11.30
2018-05-06T00:52:17.876Z,11.30
2018-05-06T00:54:46.944Z,11.20
2018-05-06T00:57:14.464Z,11.20
2018-05-06T00:59:41.948Z,11.10
2018-05-06T01:02:09.498Z,11.10
2018-05-06T01:04:37.190Z,11.00
2018-05-06T01:07:04.789Z,11.00
2018-05-06T01:09:32.285Z,11.10
2018-05-06T01:11:59.750Z,11.10
2018-05-06T01:14:27.628Z,11.20
2018-05-06T01:16:55.372Z,11.20
2018-05-06T01:19:22.925Z,11.20
2018-05-06T01:21:52.112Z,11.30
2018-05-06T01:24:19.582Z,11.40
2018-05-06T01:26:47.091Z,11.40
2018-05-06T01:29:15.351Z,11.50
2018-05-06T01:31:43.596Z,11.50
2018-05-06T01:34:11.809Z,11.50
2018-05-06T01:36:40.058Z,11.60
2018-05-06T01:39:07.865Z,11.60
2018-05-06T01:41:35.533Z,11.50
2018-05-06T01:44:03.561Z,11.40
2018-05-06T01:46:31.241Z,11.30
2018-05-06T01:48:59.541Z,11.20
2018-05-06T01:51:28.605Z,11.10
2018-05-06T01:53:56.655Z,11.10
2018-05-06T01:56:24.927Z,11.10
2018-05-06T01:58:52.396Z,11.00
2018-05-06T02:01:22.617Z,11.00
2018-05-06T02:03:50.134Z,11.00
2018-05-06T02:06:17.600Z,11.00
2018-05-06T02:08:45.666Z,11.10
2018-05-06T02:11:13.534Z,11.10
2018-05-06T02:13:41.245Z,11.10
2018-05-06T02:16:08.761Z,11.00
2018-05-06T02:18:36.989Z,11.00
2018-05-06T02:21:05.237Z,10.90
2018-05-06T02:23:32.720Z,10.90
2018-05-06T02:26:01.107Z,10.90
2018-05-06T02:28:29.728Z,10.80
2018-05-06T02:30:57.577Z,10.80
2018-05-06T02:33:25.316Z,10.70
2018-05-06T02:35:53.785Z,10.50
2018-05-06T02:38:21.612Z,10.50
2018-05-06T02:40:49.103Z,10.50
2018-05-06T02:43:16.652Z,10.50
2018-05-06T02:45:44.361Z,10.40
2018-05-06T02:48:12.594Z,10.40
2018-05-06T02:50:40.080Z,10.40
2018-05-06T02:53:08.310Z,10.30
2018-05-06T02:55:35.781Z,10.20
2018-05-06T02:58:03.257Z,10.20
2018-05-06T03:00:30.736Z,10.20
2018-05-06T03:03:00.026Z,10.20
2018-05-06T03:05:27.508Z,10.10
2018-05-06T03:07:54.988Z,10.10
2018-05-06T03:10:22.473Z,10.10
2018-05-06T03:12:49.977Z,10.10
2018-05-06T03:15:17.467Z,10.10
2018-05-06T03:17:44.952Z,10.10
2018-05-06T03:20:12.421Z,10.10
2018-05-06T03:22:39.889Z,10.10
2018-05-06T03:25:08.138Z,10.00
2018-05-06T03:27:35.622Z,10.00
2018-05-06T03:30:03.099Z,10.00
2018-05-06T03:32:31.332Z,9.90
2018-05-06T03:34:58.800Z,9.90
2018-05-06T03:37:26.274Z,9.90
2018-05-06T03:39:54.766Z,9.70
2018-05-06T03:42:23.833Z,9.70
2018-05-06T03:44:51.311Z,9.70
2018-05-06T03:47:19.545Z,9.50
2018-05-06T03:49:47.014Z,9.40
2018-05-06T03:52:15.061Z,9.30
2018-05-06T03:54:42.533Z,9.20
2018-05-06T03:57:22.016Z,9.10
2018-05-06T04:00:02.377Z,9.10
2018-05-06T04:02:31.333Z,9.20
2018-05-06T04:04:58.800Z,9.20
2018-05-06T04:07:26.262Z,9.40
2018-05-06T04:09:53.725Z,9.60
2018-05-06T04:12:21.184Z,9.80
2018-05-06T04:14:49.009Z,10.00
2018-05-06T04:17:16.466Z,10.10
2018-05-06T04:19:43.949Z,10.30
2018-05-06T04:22:11.416Z,10.40
2018-05-06T04:24:38.912Z,10.50
2018-05-06T04:27:06.778Z,10.60
2018-05-06T04:29:34.475Z,10.70
2018-05-06T04:32:02.763Z,10.70
2018-05-06T04:34:30.781Z,10.60
2018-05-06T04:36:59.065Z,10.80
2018-05-06T04:39:27.018Z,10.70
2018-05-06T04:41:55.721Z,10.90
2018-05-06T04:44:25.190Z,10.90
2018-05-06T04:46:53.231Z,11.00
2018-05-06T04:49:28.184Z,11.00
2018-05-06T04:51:55.663Z,11.00
2018-05-06T04:54:23.896Z,11.00
2018-05-06T04:56:51.456Z,11.00
2018-05-06T04:59:18.956Z,11.00
2018-05-06T05:01:47.190Z,11.10
2018-05-06T05:04:14.661Z,11.10
2018-05-06T05:06:42.561Z,11.10
2018-05-06T05:09:10.838Z,11.20
2018-05-06T05:11:39.125Z,11.30
2018-05-06T05:14:07.364Z,12.00
2018-05-06T05:16:35.123Z,12.00
2018-05-06T05:19:03.198Z,13.30
2018-05-06T05:21:30.675Z,14.80
2018-05-06T05:23:58.156Z,16.10
2018-05-06T05:26:26.977Z,17.70
2018-05-06T05:28:54.452Z,17.70
2018-05-06T05:31:21.979Z,18.10
2018-05-06T05:33:49.537Z,18.70
2018-05-06T05:36:17.009Z,19.20
2018-05-06T05:38:44.537Z,19.50
2018-05-06T05:41:12.292Z,19.80
2018-05-06T05:43:40.662Z,19.50
2018-05-06T05:46:09.499Z,19.70
2018-05-06T05:48:36.991Z,19.60
2018-05-06T05:51:04.558Z,20.00
2018-05-06T05:53:32.329Z,20.00
2018-05-06T05:55:59.829Z,20.20
2018-05-06T05:58:27.322Z,20.20
2018-05-06T06:00:54.901Z,20.40
2018-05-06T06:03:22.369Z,20.50
2018-05-06T06:05:50.660Z,20.80
2018-05-06T06:08:18.909Z,21.00
2018-05-06T06:10:46.385Z,21.00
2018-05-06T06:13:16.598Z,22.40
2018-05-06T06:15:44.726Z,22.30
2018-05-06T06:18:12.198Z,23.00
2018-05-06T06:20:39.673Z,22.70
2018-05-06T06:23:07.140Z,22.40
2018-05-06T06:25:34.616Z,22.30
2018-05-06T06:28:02.085Z,22.40
2018-05-06T06:30:29.644Z,22.20
2018-05-06T06:32:57.193Z,22.50
2018-05-06T06:35:24.923Z,22.20
2018-05-06T06:37:52.396Z,22.30
2018-05-06T06:40:20.018Z,22.40
2018-05-06T06:42:47.660Z,22.00
2018-05-06T06:45:15.174Z,21.70
2018-05-06T06:47:43.925Z,21.80
2018-05-06T06:50:11.912Z,22.20
2018-05-06T06:52:42.109Z,22.60
2018-05-06T06:55:10.010Z,22.80
2018-05-06T06:57:37.492Z,22.50
2018-05-06T07:00:05.734Z,22.40
2018-05-06T07:02:33.238Z,22.40
2018-05-06T07:05:01.493Z,22.40
2018-05-06T07:07:29.808Z,22.40
2018-05-06T07:09:57.279Z,22.30
2018-05-06T07:12:24.831Z,22.70
2018-05-06T07:14:52.710Z,23.00
2018-05-06T07:17:20.217Z,22.90
2018-05-06T07:19:48.394Z,22.40
2018-05-06T07:22:16.670Z,22.60
2018-05-06T07:24:44.269Z,22.60
2018-05-06T07:27:11.742Z,22.60
2018-05-06T07:29:39.220Z,22.70
2018-05-06T07:32:06.742Z,22.30
2018-05-06T07:34:34.648Z,22.10
2018-05-06T07:37:02.168Z,21.90
2018-05-06T07:39:29.767Z,22.20
2018-05-06T07:41:57.297Z,22.40
2018-05-06T07:44:25.951Z,22.30
2018-05-06T07:46:54.195Z,22.50
2018-05-06T07:49:22.300Z,22.40
2018-05-06T07:51:49.929Z,22.80
2018-05-06T07:54:17.408Z,22.40
2018-05-06T07:56:46.235Z,22.80
2018-05-06T07:59:13.832Z,22.80
2018-05-06T08:01:41.442Z,23.20
2018-05-06T08:04:08.963Z,23.40
2018-05-06T08:06:36.493Z,23.10
2018-05-06T08:09:04.668Z,23.20
2018-05-06T08:11:32.224Z,23.10
2018-05-06T08:13:59.865Z,23.40
2018-05-06T08:16:27.376Z,23.60
2018-05-06T08:18:54.877Z,24.00
2018-05-06T08:21:22.813Z,24.40
2018-05-06T08:23:51.084Z,24.40
2018-05-06T08:26:18.679Z,24.40
2018-05-06T08:28:46.201Z,24.60
2018-05-06T08:31:13.845Z,24.40
2018-05-06T08:33:41.340Z,24.40
2018-05-06T08:36:09.604Z,24.20
2018-05-06T08:38:37.850Z,24.10
2018-05-06T08:41:06.328Z,24.10
2018-05-06T08:43:33.803Z,24.20
2018-05-06T08:46:01.427Z,24.30
2018-05-06T08:48:29.090Z,24.10
2018-05-06T08:50:56.656Z,24.30
2018-05-06T08:53:24.578Z,24.40
2018-05-06T08:55:52.834Z,24.80
2018-05-06T08:58:21.021Z,24.80
2018-05-06T09:00:49.447Z,24.80
2018-05-06T09:03:18.395Z,24.80
2018-05-06T09:05:45.917Z,24.70
2018-05-06T09:08:13.536Z,24.50
2018-05-06T09:10:41.084Z,24.90
2018-05-06T09:13:09.354Z,24.90
2018-05-06T09:15:37.647Z,25.10
2018-05-06T09:18:05.930Z,25.10
2018-05-06T09:20:33.463Z,25.10
2018-05-06T09:23:00.955Z,25.10
2018-05-06T09:25:28.494Z,25.40
2018-05-06T09:27:56.034Z,25.60
2018-05-06T09:30:24.273Z,26.20
2018-05-06T09:32:51.831Z,26.10
2018-05-06T09:35:19.444Z,25.80
2018-05-06T09:37:47.896Z,25.70
2018-05-06T09:40:16.112Z,25.10
2018-05-06T09:42:43.603Z,25.10
2018-05-06T09:45:11.103Z,25.20
2018-05-06T09:47:38.704Z,25.80
2018-05-06T09:50:06.937Z,25.80
2018-05-06T09:52:34.436Z,25.80
2018-05-06T09:55:01.995Z,25.80
2018-05-06T09:57:29.511Z,26.20
2018-05-06T09:59:57.018Z,26.30
2018-05-06T10:02:24.494Z,26.10
2018-05-06T10:04:51.979Z,26.10
2018-05-06T10:07:19.485Z,25.70
2018-05-06T10:09:47.415Z,26.10
2018-05-06T10:12:15.700Z,26.70
2018-05-06T10:14:43.966Z,26.90
2018-05-06T10:17:12.538Z,26.80
2018-05-06T10:19:40.040Z,26.60
2018-05-06T10:22:07.500Z,26.30
2018-05-06T10:24:34.961Z,26.70
2018-05-06T10:27:02.446Z,26.40
2018-05-06T10:29:29.937Z,26.90
2018-05-06T10:31:58.448Z,26.30
2018-05-06T10:34:26.767Z,26.00
2018-05-06T10:36:54.228Z,26.30
2018-05-06T10:39:21.684Z,26.40
2018-05-06T10:41:49.149Z,26.30
2018-05-06T10:44:16.727Z,26.40
2018-05-06T10:46:44.876Z,25.60
2018-05-06T10:49:12.453Z,25.50
2018-05-06T10:51:39.874Z,25.90
2018-05-06T10:54:07.359Z,26.10
2018-05-06T10:56:34.874Z,26.00
2018-05-06T10:59:02.362Z,26.30
2018-05-06T11:01:29.836Z,26.60
2018-05-06T11:03:58.171Z,26.80
2018-05-06T11:06:26.405Z,26.40
2018-05-06T11:08:53.874Z,26.40
2018-05-06T11:11:22.117Z,27.20
2018-05-06T11:13:49.592Z,27.10
2018-05-06T11:16:17.056Z,27.30
2018-05-06T11:18:44.529Z,26.90
2018-05-06T11:21:12.826Z,26.40
2018-05-06T11:23:40.307Z,26.40
2018-05-06T11:26:08.089Z,26.40
2018-05-06T11:28:36.304Z,27.10
2018-05-06T11:31:04.568Z,27.40
2018-05-06T11:33:32.842Z,27.70
2018-05-06T11:36:00.337Z,27.70
2018-05-06T11:38:27.818Z,27.70
2018-05-06T11:40:55.315Z,27.30
2018-05-06T11:43:22.773Z,27.40
2018-05-06T11:45:50.260Z,27.60
2018-05-06T11:48:17.770Z,27.40
2018-05-06T11:50:45.282Z,27.50
2018-05-06T11:53:12.776Z,27.90
2018-05-06T11:55:40.402Z,27.90
2018-05-06T11:58:08.463Z,27.50
2018-05-06T12:00:36.119Z,27.60
2018-05-06T12:03:03.662Z,27.50
2018-05-06T12:05:31.166Z,27.40
2018-05-06T12:07:58.654Z,27.40
2018-05-06T12:10:26.143Z,27.50
2018-05-06T12:12:54.398Z,27.80
2018-05-06T12:15:21.926Z,27.80
2018-05-06T12:17:49.446Z,28.10
2018-05-06T12:20:17.693Z,28.10
2018-05-06T12:22:45.173Z,28.00
2018-05-06T12:25:13.445Z,27.80
2018-05-06T12:27:41.797Z,27.60
2018-05-06T12:30:09.277Z,27.60
2018-05-06T12:32:37.586Z,27.50
2018-05-06T12:35:05.162Z,27.40
2018-05-06T12:37:33.558Z,27.40
2018-05-06T12:40:01.261Z,27.80
2018-05-06T12:42:28.762Z,27.80
2018-05-06T12:44:56.601Z,27.70
2018-05-06T12:47:24.105Z,27.50
2018-05-06T12:49:55.756Z,27.00
2018-05-06T12:52:23.234Z,26.60
2018-05-06T12:54:50.712Z,26.60
2018-05-06T12:57:18.984Z,27.10
2018-05-06T12:59:46.502Z,27.10
2018-05-06T13:02:14.078Z,27.30
2018-05-06T13:04:41.467Z,27.30
2018-05-06T13:07:09.725Z,27.00
2018-05-06T13:09:38.028Z,27.10
2018-05-06T13:12:06.312Z,27.40
2018-05-06T13:14:33.819Z,27.40
2018-05-06T13:17:01.325Z,27.80
2018-05-06T13:19:29.585Z,28.20
2018-05-06T13:21:57.838Z,28.00
2018-05-06T13:24:25.388Z,28.00
2018-05-06T13:26:52.869Z,27.70
2018-05-06T13:29:20.335Z,27.90
2018-05-06T13:31:47.886Z,28.00
2018-05-06T13:34:15.375Z,28.10
2018-05-06T13:36:42.864Z,28.10
2018-05-06T13:39:10.662Z,28.10
2018-05-06T13:41:38.128Z,28.40
2018-05-06T13:44:12.196Z,28.30
2018-05-06T13:46:46.234Z,28.70
2018-05-06T13:49:14.664Z,29.30
2018-05-06T13:51:42.131Z,29.50
2018-05-06T13:54:09.610Z,29.50
2018-05-06T13:56:37.841Z,29.20
2018-05-06T13:59:06.072Z,29.70
2018-05-06T14:01:33.605Z,29.70
2018-05-06T14:04:01.817Z,30.20
2018-05-06T14:06:49.880Z,30.20
2018-05-06T14:09:17.354Z,30.60
2018-05-06T14:11:45.633Z,30.80
2018-05-06T14:14:13.105Z,30.80
2018-05-06T14:16:40.582Z,30.80
2018-05-06T14:19:08.632Z,30.90
2018-05-06T14:21:36.819Z,30.80
2018-05-06T14:24:04.233Z,30.30
2018-05-06T14:26:32.488Z,30.70
2018-05-06T14:29:00.298Z,30.60
2018-05-06T14:31:27.775Z,30.50
2018-05-06T14:33:55.256Z,31.00
2018-05-06T14:36:22.797Z,31.70
2018-05-06T14:38:51.806Z,32.40
2018-05-06T14:41:19.315Z,32.70
2018-05-06T14:43:46.841Z,32.80
2018-05-06T14:46:26.188Z,33.00
2018-05-06T14:48:54.017Z,33.00
2018-05-06T14:51:21.494Z,32.70
2018-05-06T14:53:49.689Z,32.20
2018-05-06T14:56:17.714Z,31.70
2018-05-06T14:58:45.188Z,32.20
2018-05-06T15:01:12.724Z,32.50
2018-05-06T15:03:41.130Z,32.90
2018-05-06T15:06:08.654Z,32.60
2018-05-06T15:08:36.142Z,32.20
2018-05-06T15:11:03.680Z,31.80
2018-05-06T15:13:41.758Z,31.80
2018-05-06T15:16:10.008Z,32.10
2018-05-06T15:18:37.492Z,32.10
2018-05-06T15:21:07.005Z,32.50
2018-05-06T15:23:34.531Z,32.50
2018-05-06T15:26:02.734Z,32.30
2018-05-06T15:28:35.455Z,32.80
2018-05-06T15:31:05.473Z,32.80
2018-05-06T15:33:34.306Z,33.00
2018-05-06T15:36:03.600Z,33.60
2018-05-06T15:38:32.315Z,33.60
2018-05-06T15:41:00.252Z,33.50
2018-05-06T15:43:28.911Z,33.30
2018-05-06T15:45:56.522Z,33.20
2018-05-06T15:48:24.225Z,33.80
2018-05-06T15:50:51.788Z,34.60
2018-05-06T15:53:19.631Z,34.80
2018-05-06T15:55:47.325Z,33.90
2018-05-06T15:58:17.580Z,33.10
2018-05-06T16:00:48.562Z,32.50
2018-05-06T16:03:28.221Z,31.70
2018-05-06T16:05:56.897Z,31.30
2018-05-06T16:11:00.076Z,31.40
2018-05-06T16:13:28.652Z,31.10
2018-05-06T16:15:56.930Z,31.60
2018-05-06T16:18:25.578Z,31.80
2018-05-06T16:20:53.320Z,31.70
2018-05-06T16:23:21.272Z,32.20
2018-05-06T16:25:48.860Z,32.60
2018-05-06T16:28:16.560Z,33.10
2018-05-06T16:30:44.645Z,33.30
2018-05-06T16:33:12.387Z,33.00
2018-05-06T16:35:39.970Z,31.30
2018-05-06T16:38:07.600Z,30.50
2018-05-06T16:40:35.887Z,30.00
2018-05-06T16:43:03.471Z,30.00
2018-05-06T16:45:31.775Z,29.50
2018-05-06T16:48:00.119Z,29.50
2018-05-06T16:50:29.980Z,29.60
2018-05-06T16:53:01.322Z,29.50
2018-05-06T16:55:28.860Z,29.60
2018-05-06T16:58:01.968Z,29.30
2018-05-06T17:00:32.623Z,29.40
2018-05-06T17:03:01.142Z,28.40
2018-05-06T17:05:28.677Z,28.30
2018-05-06T17:07:56.596Z,28.20
2018-05-06T17:10:26.268Z,28.30
2018-05-06T17:12:55.169Z,28.40
2018-05-06T17:15:23.932Z,27.60
2018-05-06T17:17:52.171Z,27.60
2018-05-06T17:20:21.161Z,27.10
2018-05-06T17:22:48.708Z,26.70
2018-05-06T17:25:16.163Z,26.10
2018-05-06T17:27:44.098Z,25.40
2018-05-06T17:30:12.922Z,24.90
2018-05-06T17:32:41.288Z,24.50
2018-05-06T17:35:09.332Z,24.10
2018-05-06T17:37:36.886Z,23.90
2018-05-06T17:40:04.447Z,23.70
2018-05-06T17:42:31.955Z,23.50
2018-05-06T17:44:59.408Z,23.30
2018-05-06T17:47:26.890Z,23.10
2018-05-06T17:49:55.164Z,22.90
2018-05-06T17:52:22.658Z,22.90
2018-05-06T17:54:50.159Z,22.70
2018-05-06T17:57:17.644Z,22.60
2018-05-06T17:59:45.203Z,22.50
2018-05-06T18:02:13.420Z,22.20
2018-05-06T18:04:40.912Z,22.20
2018-05-06T18:07:08.468Z,22.10
2018-05-06T18:09:35.933Z,21.90
2018-05-06T18:12:03.376Z,21.80
2018-05-06T18:14:30.832Z,21.70
2018-05-06T18:16:58.295Z,21.60
2018-05-06T18:19:25.764Z,21.40
2018-05-06T18:21:53.215Z,21.30
2018-05-06T18:24:21.528Z,20.90
2018-05-06T18:26:49.947Z,20.60
2018-05-06T18:29:17.928Z,20.60
2018-05-06T18:31:45.455Z,20.40
2018-05-06T18:34:12.924Z,20.20
2018-05-06T18:36:40.416Z,20.00
2018-05-06T18:39:07.963Z,19.90
2018-05-06T18:41:35.419Z,19.80
2018-05-06T18:44:02.872Z,19.70
2018-05-06T18:46:30.350Z,19.60
2018-05-06T18:48:57.819Z,19.60
2018-05-06T18:51:25.358Z,19.40
2018-05-06T18:53:52.908Z,19.30
2018-05-06T18:56:20.375Z,19.30
2018-05-06T18:58:47.820Z,19.20
2018-05-06T19:01:15.303Z,19.20
2018-05-06T19:03:44.044Z,19.10
2018-05-06T19:06:11.560Z,19.00
2018-05-06T19:08:39.775Z,18.80
2018-05-06T19:11:07.376Z,18.80
2018-05-06T19:13:34.827Z,18.80
2018-05-06T19:16:02.290Z,18.70
2018-05-06T19:18:29.739Z,18.60
2018-05-06T19:20:57.224Z,18.40
2018-05-06T19:23:25.471Z,18.30
2018-05-06T19:25:53.021Z,18.30
2018-05-06T19:28:20.487Z,18.20
2018-05-06T19:30:48.043Z,18.10
2018-05-06T19:33:16.048Z,18.10
2018-05-06T19:35:44.584Z,18.00
2018-05-06T19:38:12.031Z,18.00
2018-05-06T19:40:39.483Z,18.00
2018-05-06T19:43:07.364Z,17.90
2018-05-06T19:45:34.832Z,17.90
2018-05-06T19:48:02.313Z,17.80
2018-05-06T19:50:29.763Z,17.70
2018-05-06T19:52:57.242Z,17.60
2018-05-06T19:55:25.457Z,17.50
2018-05-06T19:57:52.947Z,17.50
2018-05-06T20:00:23.237Z,17.50
2018-05-06T20:02:50.983Z,17.40
2018-05-06T20:05:19.019Z,17.40
2018-05-06T20:07:46.472Z,17.20
2018-05-06T20:10:13.919Z,17.10
2018-05-06T20:12:42.012Z,17.00
2018-05-06T20:15:09.553Z,16.90
2018-05-06T20:17:37.104Z,16.80
2018-05-06T20:20:04.560Z,16.70
2018-05-06T20:22:32.013Z,16.60
2018-05-06T20:25:06.304Z,16.60
2018-05-06T20:27:33.767Z,16.60
2018-05-06T20:30:02.187Z,16.50
2018-05-06T20:32:29.636Z,16.50
2018-05-06T20:34:58.310Z,16.50
2018-05-06T20:37:26.886Z,16.40
2018-05-06T20:39:54.936Z,16.40
2018-05-06T20:42:22.430Z,16.20
2018-05-06T20:44:49.946Z,16.20
2018-05-06T20:47:17.355Z,16.10
2018-05-06T20:49:44.939Z,16.00
2018-05-06T20:52:13.154Z,15.90
2018-05-06T20:54:40.642Z,15.90
2018-05-06T20:57:08.075Z,15.90
2018-05-06T20:59:35.623Z,15.80
2018-05-06T21:02:03.139Z,15.80
2018-05-06T21:04:30.635Z,15.80
2018-05-06T21:06:58.311Z,15.80
2018-05-06T21:09:25.746Z,15.70
2018-05-06T21:11:53.186Z,15.70
2018-05-06T21:14:20.667Z,15.60
2018-05-06T21:16:48.107Z,15.60
2018-05-06T21:19:15.661Z,15.50
2018-05-06T21:21:43.015Z,15.40
2018-05-06T21:24:10.447Z,15.40
2018-05-06T21:26:38.645Z,15.20
2018-05-06T21:29:06.203Z,15.20
2018-05-06T21:31:33.634Z,15.10
2018-05-06T21:34:02.363Z,14.90
2018-05-06T21:36:29.859Z,14.90
2018-05-06T21:38:57.302Z,14.80
2018-05-06T21:41:24.738Z,14.80
2018-05-06T21:43:53.614Z,14.70
2018-05-06T21:46:21.050Z,14.70
2018-05-06T21:48:49.363Z,14.60
2018-05-06T21:51:16.832Z,14.60
2018-05-06T21:53:44.923Z,14.60
2018-05-06T21:56:12.334Z,14.60
2018-05-06T21:58:39.801Z,14.60
2018-05-06T22:01:07.557Z,14.60
2018-05-06T22:03:35.049Z,14.60
2018-05-06T22:06:02.490Z,14.60
2018-05-06T22:08:29.916Z,14.60
2018-05-06T22:10:57.347Z,14.50
2018-05-06T22:13:25.550Z,14.50
2018-05-06T22:15:53.043Z,14.50
2018-05-06T22:18:20.906Z,14.50
2018-05-06T22:20:48.923Z,14.50
2018-05-06T22:23:17.150Z,14.40
2018-05-06T22:25:44.537Z,14.40
2018-05-06T22:28:11.965Z,14.30
2018-05-06T22:30:40.022Z,14.30
2018-05-06T22:33:07.434Z,14.20
2018-05-06T22:35:35.858Z,14.10
2018-05-06T22:38:05.885Z,14.00
2018-05-06T22:40:33.298Z,14.00
2018-05-06T22:43:01.496Z,13.90
2018-05-06T22:45:29.646Z,13.90
2018-05-06T22:47:59.259Z,13.70
2018-05-06T22:50:26.674Z,13.70
2018-05-06T22:52:54.105Z,13.70
2018-05-06T22:55:22.159Z,13.60
2018-05-06T22:57:49.621Z,13.50
2018-05-06T23:00:17.053Z,13.50
2018-05-06T23:02:45.242Z,13.40
2018-05-06T23:05:12.710Z,13.30
2018-05-06T23:07:40.140Z,13.30
2018-05-06T23:10:08.377Z,13.20
2018-05-06T23:12:36.003Z,13.30
2018-05-06T23:15:03.790Z,13.20
2018-05-06T23:17:31.529Z,13.20
2018-05-06T23:19:58.947Z,13.20
2018-05-06T23:22:27.170Z,13.10
2018-05-06T23:24:55.011Z,13.10
2018-05-06T23:27:22.926Z,13.10
2018-05-06T23:29:50.940Z,13.00
2018-05-06T23:32:18.321Z,13.00
2018-05-06T23:34:45.759Z,12.90
2018-05-06T23:37:13.246Z,12.80
2018-05-06T23:39:41.526Z,12.70
2018-05-06T23:42:09.567Z,12.70
2018-05-06T23:44:37.938Z,12.70
2018-05-06T23:47:06.717Z,12.70
2018-05-06T23:49:35.441Z,12.70
2018-05-06T23:52:02.992Z,12.60
2018-05-06T23:54:30.427Z,12.60
2018-05-06T23:56:57.877Z,12.60
2018-05-06T23:59:26.094Z,12.60
